createdAt,value
2022-08-10T00:00:23.049Z,2.50
2022-08-10T00:02:52.555Z,2.72
2022-08-10T00:05:21.502Z,2.60
2022-08-10T00:07:50.179Z,2.72
2022-08-10T00:10:21.226Z,2.85
2022-08-10T00:12:53.602Z,2.65
2022-08-10T00:15:52.168Z,2.85
2022-08-10T00:18:35.374Z,2.38
2022-08-10T00:21:03.025Z,2.72
2022-08-10T00:23:31.802Z,2.70
2022-08-10T00:26:00.035Z,2.50
2022-08-10T00:28:28.724Z,2.67
2022-08-10T00:30:59.546Z,2.53
2022-08-10T00:33:28.182Z,2.75
2022-08-10T00:35:56.507Z,2.40
2022-08-10T00:38:25.121Z,2.70
2022-08-10T00:40:53.715Z,2.78
2022-08-10T00:43:23.678Z,2.85
2022-08-10T00:45:58.958Z,2.85
2022-08-10T00:48:31.053Z,2.50
2022-08-10T00:50:59.977Z,2.63
2022-08-10T00:53:28.738Z,2.53
2022-08-10T00:57:12.242Z,2.92
2022-08-10T00:58:46.722Z,2.83
2022-08-10T01:02:08.714Z,2.70
2022-08-10T01:04:39.651Z,2.72
2022-08-10T01:07:08.419Z,2.70
2022-08-10T01:09:44.603Z,3.05
2022-08-10T01:12:40.271Z,2.47
2022-08-10T01:15:16.196Z,2.63
2022-08-10T01:17:53.512Z,2.63
2022-08-10T01:20:34.966Z,2.40
2022-08-10T01:24:06.069Z,2.75
2022-08-10T01:27:28.386Z,2.80
2022-08-10T01:30:20.874Z,2.83
2022-08-10T01:33:13.269Z,2.60
2022-08-10T01:35:58.825Z,2.83
2022-08-10T01:38:29.899Z,3.22
2022-08-10T01:41:04.796Z,2.97
2022-08-10T01:43:35.987Z,2.85
2022-08-10T01:46:06.635Z,3.00
2022-08-10T01:48:38.857Z,2.90
2022-08-10T01:51:14.456Z,3.00
2022-08-10T01:53:47.188Z,2.72
2022-08-10T01:56:16.730Z,2.80
2022-08-10T01:58:47.466Z,3.00
2022-08-10T02:01:21.165Z,3.08
2022-08-10T02:04:03.830Z,3.38
2022-08-10T02:06:37.015Z,3.10
2022-08-10T02:09:07.669Z,3.15
2022-08-10T02:12:05.107Z,3.05
2022-08-10T02:14:33.452Z,3.05
2022-08-10T02:17:09.096Z,2.97
2022-08-10T02:20:01.331Z,3.15
2022-08-10T02:22:37.616Z,2.92
2022-08-10T02:25:10.979Z,3.97
2022-08-10T02:27:59.692Z,3.28
2022-08-10T02:30:30.145Z,3.25
2022-08-10T02:33:00.749Z,3.47
2022-08-10T02:35:39.304Z,3.35
2022-08-10T02:38:23.195Z,3.15
2022-08-10T02:45:12.145Z,3.22
2022-08-10T02:45:24.219Z,3.08
2022-08-10T02:47:04.042Z,3.25
2022-08-10T02:49:39.944Z,3.47
2022-08-10T02:52:15.428Z,3.25
2022-08-10T02:55:06.162Z,3.30
2022-08-10T02:58:12.579Z,3.20
2022-08-10T03:00:44.873Z,3.67
2022-08-10T03:03:20.162Z,3.50
2022-08-10T03:06:00.877Z,3.50
2022-08-10T03:08:33.570Z,3.15
2022-08-10T03:11:06.040Z,3.72
2022-08-10T03:13:35.765Z,3.17
2022-08-10T03:16:05.941Z,3.58
2022-08-10T03:18:35.546Z,3.60
2022-08-10T03:21:11.341Z,3.25
2022-08-10T03:23:42.914Z,3.50
2022-08-10T03:26:12.961Z,3.30
2022-08-10T03:28:42.000Z,3.70
2022-08-10T03:31:10.704Z,3.50
2022-08-10T03:33:41.402Z,3.30
2022-08-10T03:36:40.447Z,3.67
2022-08-10T03:39:02.319Z,3.30
2022-08-10T03:41:36.667Z,3.67
2022-08-10T03:44:09.949Z,3.53
2022-08-10T03:46:48.213Z,3.22
2022-08-10T03:49:20.450Z,3.13
2022-08-10T03:51:51.822Z,3.35
2022-08-10T03:54:20.734Z,3.42
2022-08-10T03:56:49.088Z,3.25
2022-08-10T03:59:18.729Z,3.40
2022-08-10T04:02:45.763Z,3.17
2022-08-10T04:04:35.710Z,3.65
2022-08-10T04:07:06.218Z,3.20
2022-08-10T04:09:53.453Z,3.13
2022-08-10T04:12:26.165Z,3.00
2022-08-10T04:14:54.287Z,3.30
2022-08-10T04:18:01.204Z,2.97
2022-08-10T04:20:21.584Z,3.05
2022-08-10T04:22:54.276Z,3.20
2022-08-10T04:25:24.355Z,3.78
2022-08-10T04:27:54.946Z,3.10
2022-08-10T04:30:23.735Z,3.55
2022-08-10T04:33:04.196Z,3.30
2022-08-10T04:35:33.804Z,3.35
2022-08-10T04:38:05.450Z,3.47
2022-08-10T04:40:35.106Z,4.15
2022-08-10T04:43:11.723Z,3.25
2022-08-10T04:45:48.613Z,3.20
2022-08-10T04:48:42.272Z,3.22
2022-08-10T04:51:11.046Z,3.10
2022-08-10T04:54:04.517Z,3.30
2022-08-10T04:56:36.743Z,3.00
2022-08-10T04:59:06.447Z,3.15
2022-08-10T05:02:12.516Z,3.50
2022-08-10T05:04:35.364Z,3.20
2022-08-10T05:07:11.414Z,3.30
2022-08-10T05:10:03.165Z,3.28
2022-08-10T05:12:35.750Z,3.30
2022-08-10T05:15:08.273Z,3.22
2022-08-10T05:17:37.413Z,3.13
2022-08-10T05:20:07.829Z,2.95
2022-08-10T05:22:38.217Z,3.50
2022-08-10T05:25:11.055Z,3.33
2022-08-10T05:27:40.757Z,3.40
2022-08-10T05:30:11.492Z,2.90
2022-08-10T05:32:56.624Z,3.38
2022-08-10T05:35:28.448Z,3.40
2022-08-10T05:38:10.203Z,2.90
2022-08-10T05:40:46.613Z,3.08
2022-08-10T05:43:18.495Z,3.15
2022-08-10T05:46:18.019Z,3.03
2022-08-10T05:48:54.187Z,3.38
2022-08-10T05:51:25.346Z,3.30
2022-08-10T05:54:04.162Z,3.00
2022-08-10T05:56:54.105Z,2.72
2022-08-10T06:00:35.541Z,3.25
2022-08-10T06:02:32.829Z,2.95
2022-08-10T06:05:08.524Z,2.78
2022-08-10T06:07:40.623Z,3.20
2022-08-10T06:10:12.492Z,3.00
2022-08-10T06:12:55.382Z,3.10
2022-08-10T06:15:50.821Z,2.88
2022-08-10T06:18:16.618Z,2.92
2022-08-10T06:20:48.267Z,3.55
2022-08-10T06:23:17.685Z,3.22
2022-08-10T06:26:11.421Z,2.92
2022-08-10T06:28:40.450Z,2.75
2022-08-10T06:31:09.141Z,2.90
2022-08-10T06:33:39.393Z,3.17
2022-08-10T06:36:10.647Z,2.95
2022-08-10T06:38:40.832Z,2.97
2022-08-10T06:41:19.859Z,2.90
2022-08-10T06:43:58.459Z,2.92
2022-08-10T06:46:28.329Z,3.08
2022-08-10T06:49:00.444Z,2.53
2022-08-10T06:51:31.923Z,2.67
2022-08-10T06:54:05.751Z,2.60
2022-08-10T06:56:41.550Z,2.63
2022-08-10T06:59:31.281Z,2.55
2022-08-10T07:02:03.511Z,2.70
2022-08-10T07:04:35.569Z,2.70
2022-08-10T07:07:06.813Z,2.70
2022-08-10T07:09:38.695Z,2.95
2022-08-10T07:12:09.553Z,2.38
2022-08-10T07:14:45.593Z,2.38
2022-08-10T07:17:16.683Z,2.75
2022-08-10T07:19:49.920Z,2.33
2022-08-10T07:23:01.255Z,2.22
2022-08-10T07:25:16.433Z,2.45
2022-08-10T07:28:00.487Z,2.50
2022-08-10T07:30:33.582Z,2.85
2022-08-10T07:33:02.890Z,2.50
2022-08-10T07:35:42.132Z,2.83
2022-08-10T07:38:15.029Z,3.20
2022-08-10T07:40:51.838Z,2.70
2022-08-10T07:43:24.915Z,3.10
2022-08-10T07:45:55.030Z,2.45
2022-08-10T07:48:27.827Z,2.70
2022-08-10T07:50:59.767Z,2.70
2022-08-10T07:53:31.949Z,2.50
2022-08-10T07:56:13.339Z,2.80
2022-08-10T07:58:58.540Z,2.63
2022-08-10T08:01:33.051Z,2.67
2022-08-10T08:04:11.044Z,2.70
2022-08-10T08:06:42.380Z,2.95
2022-08-10T08:09:11.937Z,2.70
2022-08-10T08:11:42.543Z,3.03
2022-08-10T08:14:12.204Z,2.88
2022-08-10T08:16:44.701Z,2.92
2022-08-10T08:19:37.047Z,2.92
2022-08-10T08:24:08.544Z,2.50
2022-08-10T08:25:48.098Z,2.40
2022-08-10T08:28:23.915Z,2.58
2022-08-10T08:30:54.215Z,2.40
2022-08-10T08:33:42.250Z,2.03
2022-08-10T08:36:12.420Z,2.05
2022-08-10T08:38:42.232Z,2.10
2022-08-10T08:41:39.456Z,2.28
2022-08-10T08:44:16.414Z,2.28
2022-08-10T08:48:03.161Z,2.10
2022-08-10T08:50:18.172Z,2.05
2022-08-10T08:52:58.299Z,1.90
2022-08-10T08:56:04.808Z,2.17
2022-08-10T08:58:49.544Z,1.90
2022-08-10T09:01:48.307Z,2.28
2022-08-10T09:04:49.762Z,2.00
2022-08-10T09:08:00.630Z,2.20
2022-08-10T09:10:44.497Z,1.80
2022-08-10T09:13:27.073Z,1.95
2022-08-10T09:16:12.784Z,1.92
2022-08-10T09:18:46.886Z,1.65
2022-08-10T09:21:21.132Z,1.83
2022-08-10T09:24:04.759Z,1.90
2022-08-10T09:26:43.872Z,2.22
2022-08-10T09:29:18.722Z,1.63
2022-08-10T09:31:55.854Z,1.90
2022-08-10T09:36:29.675Z,1.70
2022-08-10T09:38:02.442Z,1.88
2022-08-10T09:41:00.848Z,1.83
2022-08-10T09:43:49.543Z,1.83
2022-08-10T09:46:35.125Z,2.05
2022-08-10T09:49:16.167Z,1.90
2022-08-10T09:51:56.453Z,1.70
2022-08-10T09:54:37.570Z,1.92
2022-08-10T09:57:44.515Z,1.83
2022-08-10T10:00:12.754Z,1.90
2022-08-10T10:02:52.785Z,1.90
2022-08-10T10:05:34.534Z,1.85
2022-08-10T10:08:43.175Z,1.90
2022-08-10T10:11:21.453Z,1.50
2022-08-10T10:14:13.959Z,1.50
2022-08-10T10:17:33.755Z,1.83
2022-08-10T10:20:10.891Z,1.60
2022-08-10T10:22:50.078Z,1.60
2022-08-10T10:28:57.823Z,1.55
2022-08-10T10:31:29.117Z,1.60
2022-08-10T10:34:13.306Z,1.67
2022-08-10T10:36:45.440Z,1.60
2022-08-10T10:39:15.499Z,1.48
2022-08-10T10:42:03.542Z,1.40
2022-08-10T10:44:42.305Z,1.40
2022-08-10T10:47:26.410Z,1.35
2022-08-10T10:50:14.680Z,1.20
2022-08-10T10:53:04.534Z,1.58
2022-08-10T10:56:15.105Z,1.42
2022-08-10T10:58:58.751Z,1.40
2022-08-10T11:01:39.309Z,1.02
2022-08-10T11:04:22.089Z,1.15
2022-08-10T11:07:04.371Z,2.00
2022-08-10T11:10:08.634Z,1.40
2022-08-10T11:12:35.062Z,1.23
2022-08-10T11:15:17.347Z,1.50
2022-08-10T11:17:53.903Z,1.55
2022-08-10T11:20:28.192Z,1.20
2022-08-10T11:23:12.713Z,1.40
2022-08-10T11:25:46.164Z,1.50
2022-08-10T11:28:19.159Z,1.10
2022-08-10T11:30:53.871Z,1.30
2022-08-10T11:33:30.735Z,1.58
2022-08-10T11:36:05.409Z,1.20
2022-08-10T11:38:57.992Z,1.30
2022-08-10T11:42:08.736Z,1.10
2022-08-10T11:44:35.872Z,1.13
2022-08-10T11:47:11.138Z,0.93
2022-08-10T11:49:50.431Z,1.20
2022-08-10T11:52:24.793Z,1.10
2022-08-10T11:55:00.645Z,1.05
2022-08-10T11:57:54.013Z,1.33
2022-08-10T12:00:21.343Z,1.30
2022-08-10T12:02:55.987Z,1.20
2022-08-10T12:05:53.896Z,1.33
2022-08-10T12:10:06.916Z,1.20
2022-08-10T12:11:08.635Z,1.30
2022-08-10T12:14:10.650Z,1.35
2022-08-10T12:16:40.815Z,1.42
2022-08-10T12:19:15.102Z,1.40
2022-08-10T12:21:48.207Z,1.48
2022-08-10T12:24:25.031Z,1.40
2022-08-10T12:27:00.351Z,1.30
2022-08-10T12:29:37.217Z,1.38
2022-08-10T12:35:29.230Z,1.73
2022-08-10T12:38:13.469Z,1.52
2022-08-10T12:40:46.048Z,1.55
2022-08-10T12:44:05.020Z,1.65
2022-08-10T12:46:16.999Z,1.42
2022-08-10T12:48:55.538Z,1.60
2022-08-10T12:51:29.213Z,1.60
2022-08-10T12:54:04.115Z,1.70
2022-08-10T12:56:40.536Z,1.30
2022-08-10T12:59:12.126Z,1.50
2022-08-10T13:02:06.866Z,1.65
2022-08-10T13:04:37.185Z,1.63
2022-08-10T13:07:07.692Z,1.60
2022-08-10T13:09:56.305Z,1.52
2022-08-10T13:12:44.451Z,1.67
2022-08-10T13:15:50.174Z,1.70
2022-08-10T13:18:18.150Z,1.70
2022-08-10T13:20:53.457Z,1.85
2022-08-10T13:23:24.981Z,1.70
2022-08-10T13:25:56.174Z,2.10
2022-08-10T13:28:43.312Z,1.95
2022-08-10T13:31:17.959Z,1.80
2022-08-10T13:34:36.603Z,1.65
2022-08-10T13:36:42.729Z,1.67
2022-08-10T13:39:13.569Z,1.40
2022-08-10T13:41:45.305Z,1.40
2022-08-10T13:44:16.955Z,1.65
2022-08-10T13:46:51.346Z,1.50
2022-08-10T13:49:22.729Z,1.73
2022-08-10T13:51:57.111Z,1.60
2022-08-10T13:54:31.129Z,1.63
2022-08-10T13:57:00.205Z,1.40
2022-08-10T14:00:37.071Z,1.20
2022-08-10T14:02:28.165Z,1.40
2022-08-10T14:04:59.770Z,1.30
2022-08-10T14:07:29.227Z,1.48
2022-08-10T14:10:07.331Z,1.20
2022-08-10T14:12:37.872Z,1.25
2022-08-10T14:15:09.410Z,1.20
2022-08-10T14:17:44.262Z,1.00
2022-08-10T14:20:19.442Z,1.23
2022-08-10T14:22:50.064Z,1.20
2022-08-10T14:25:19.200Z,0.90
2022-08-10T14:28:01.970Z,0.95
2022-08-10T14:30:35.166Z,1.10
2022-08-10T14:33:05.407Z,1.20
2022-08-10T14:36:21.752Z,1.30
2022-08-10T14:38:30.405Z,0.98
2022-08-10T14:41:01.318Z,1.10
2022-08-10T14:43:38.806Z,0.88
2022-08-10T14:46:11.158Z,0.90
2022-08-10T14:48:42.775Z,1.10
2022-08-10T14:51:15.687Z,0.80
2022-08-10T14:53:45.590Z,0.90
2022-08-10T14:56:16.428Z,0.88
2022-08-10T14:58:58.900Z,0.90
2022-08-10T15:02:01.468Z,0.80
2022-08-10T15:04:26.856Z,0.90
2022-08-10T15:07:02.523Z,1.00
2022-08-10T15:10:00.118Z,0.90
2022-08-10T15:12:26.669Z,1.10
2022-08-10T15:15:00.571Z,1.10
2022-08-10T15:17:35.300Z,0.90
2022-08-10T15:20:13.675Z,1.17
2022-08-10T15:22:50.344Z,1.00
2022-08-10T15:25:25.085Z,1.00
2022-08-10T15:28:04.291Z,1.00
2022-08-10T15:30:40.790Z,0.90
2022-08-10T15:34:02.332Z,0.90
2022-08-10T15:36:43.207Z,0.95
2022-08-10T15:40:21.305Z,0.90
2022-08-10T15:42:20.978Z,1.17
2022-08-10T15:44:59.772Z,1.00
2022-08-10T15:47:46.174Z,1.10
2022-08-10T15:50:23.278Z,0.80
2022-08-10T15:53:00.902Z,1.30
2022-08-10T15:55:43.614Z,1.10
2022-08-10T15:58:30.157Z,0.93
2022-08-10T16:02:14.048Z,1.00
2022-08-10T16:04:16.265Z,1.10
2022-08-10T16:06:50.050Z,1.30
2022-08-10T16:10:22.196Z,1.20
2022-08-10T16:12:17.102Z,1.15
2022-08-10T16:14:48.981Z,1.10
2022-08-10T16:17:18.860Z,1.15
2022-08-10T16:19:50.906Z,1.08
2022-08-10T16:22:36.084Z,1.15
2022-08-10T16:25:15.459Z,1.23
2022-08-10T16:27:47.070Z,1.27
2022-08-10T16:30:17.028Z,1.25
2022-08-10T16:32:47.570Z,1.58
2022-08-10T16:35:21.262Z,1.73
2022-08-10T16:37:58.162Z,1.30
2022-08-10T16:40:31.323Z,1.50
2022-08-10T16:43:03.898Z,1.50
2022-08-10T16:45:37.885Z,1.50
2022-08-10T16:48:09.372Z,1.40
2022-08-10T16:50:44.746Z,1.58
2022-08-10T16:53:15.193Z,1.67
2022-08-10T16:55:50.857Z,1.42
2022-08-10T16:58:35.734Z,2.28
2022-08-10T17:01:13.313Z,1.67
2022-08-10T17:04:06.252Z,1.60
2022-08-10T17:06:34.993Z,1.92
2022-08-10T17:09:07.890Z,1.67
2022-08-10T17:11:41.344Z,1.90
2022-08-10T17:14:11.557Z,1.83
2022-08-10T17:16:43.931Z,1.98
2022-08-10T17:19:19.561Z,1.90
2022-08-10T17:21:52.368Z,2.20
2022-08-10T17:24:25.431Z,1.90
2022-08-10T17:26:56.732Z,1.77
2022-08-10T17:29:57.758Z,1.88
2022-08-10T17:32:25.240Z,1.77
2022-08-10T17:34:58.320Z,1.50
2022-08-10T17:37:32.774Z,1.80
2022-08-10T17:40:08.724Z,2.20
2022-08-10T17:42:42.336Z,1.90
2022-08-10T17:45:47.594Z,2.25
2022-08-10T17:48:15.154Z,2.10
2022-08-10T17:50:44.832Z,2.10
2022-08-10T17:53:18.544Z,2.03
2022-08-10T17:55:49.711Z,2.30
2022-08-10T17:58:21.160Z,2.00
2022-08-10T18:00:54.962Z,2.22
2022-08-10T18:03:27.327Z,1.95
2022-08-10T18:05:56.990Z,2.10
2022-08-10T18:08:29.121Z,2.05
2022-08-10T18:11:01.167Z,2.10
2022-08-10T18:13:56.506Z,2.10
2022-08-10T18:16:26.204Z,2.20
2022-08-10T18:19:30.032Z,2.30
2022-08-10T18:22:00.109Z,2.15
2022-08-10T18:24:33.985Z,2.20
2022-08-10T18:27:06.203Z,2.13
2022-08-10T18:29:37.705Z,2.20
2022-08-10T18:32:11.705Z,2.22
2022-08-10T18:34:45.130Z,2.38
2022-08-10T18:37:20.404Z,2.58
2022-08-10T18:39:51.783Z,2.45
2022-08-10T18:42:25.695Z,2.35
2022-08-10T18:44:58.344Z,2.10
2022-08-10T18:47:36.428Z,2.35
2022-08-10T18:50:10.424Z,2.15
2022-08-10T18:52:44.751Z,2.33
2022-08-10T18:55:23.194Z,2.40
2022-08-10T18:58:11.796Z,2.45
2022-08-10T19:00:58.011Z,2.13
2022-08-10T19:03:53.404Z,2.25
2022-08-10T19:06:49.786Z,2.10
2022-08-10T19:09:46.219Z,2.17
2022-08-10T19:12:31.785Z,2.15
2022-08-10T19:15:09.711Z,2.40
2022-08-10T19:18:03.740Z,2.20
2022-08-10T19:20:40.709Z,2.40
2022-08-10T19:23:19.453Z,2.42
2022-08-10T19:26:37.905Z,2.13
2022-08-10T19:28:51.990Z,2.40
2022-08-10T19:31:44.327Z,2.42
2022-08-10T19:34:47.314Z,2.50
2022-08-10T19:37:34.430Z,2.15
2022-08-10T19:40:26.729Z,2.30
2022-08-10T19:44:00.981Z,2.42
2022-08-10T19:46:44.358Z,2.75
2022-08-10T19:49:22.049Z,2.33
2022-08-10T19:51:57.564Z,2.55
2022-08-10T19:54:41.309Z,2.60
2022-08-10T19:57:14.721Z,2.50
2022-08-10T20:00:14.931Z,2.40
2022-08-10T20:03:11.994Z,2.45
2022-08-10T20:06:18.943Z,2.85
2022-08-10T20:09:08.160Z,2.60
2022-08-10T20:12:18.757Z,2.70
2022-08-10T20:20:59.218Z,2.92
2022-08-10T20:23:33.617Z,2.65
2022-08-10T20:26:18.019Z,2.40
2022-08-10T20:29:10.016Z,2.80
2022-08-10T20:32:00.231Z,2.33
2022-08-10T20:34:40.743Z,2.65
2022-08-10T20:37:41.283Z,2.72
2022-08-10T20:40:15.795Z,2.63
2022-08-10T20:42:51.295Z,2.65
2022-08-10T20:45:26.212Z,2.58
2022-08-10T20:48:09.442Z,2.70
2022-08-10T20:50:43.970Z,3.00
2022-08-10T20:53:17.156Z,2.80
2022-08-10T20:55:57.181Z,2.60
2022-08-10T20:59:05.460Z,3.13
2022-08-10T21:02:06.229Z,2.60
2022-08-10T21:04:51.996Z,2.80
2022-08-10T21:08:02.646Z,2.83
2022-08-10T21:10:58.844Z,2.80
2022-08-10T21:13:46.044Z,3.08
2022-08-10T21:16:38.101Z,2.70
2022-08-10T21:19:42.132Z,2.67
2022-08-10T21:22:31.446Z,2.80
2022-08-10T21:25:09.134Z,3.08
2022-08-10T21:28:16.419Z,2.97
2022-08-10T21:31:12.357Z,2.95
2022-08-10T21:33:51.894Z,3.05
2022-08-10T21:36:25.079Z,2.85
2022-08-10T21:38:58.156Z,3.40
2022-08-10T21:41:59.896Z,3.00
2022-08-10T21:45:13.470Z,2.83
2022-08-10T21:48:18.078Z,2.70
2022-08-10T21:51:16.439Z,3.33
2022-08-10T21:54:25.930Z,3.15
2022-08-10T21:57:19.001Z,2.88
2022-08-10T22:00:11.123Z,3.30
2022-08-10T22:06:23.362Z,3.08
2022-08-10T22:09:18.764Z,3.00
2022-08-10T22:12:31.432Z,3.35
2022-08-10T22:15:24.151Z,3.30
2022-08-10T22:18:33.545Z,2.90
2022-08-10T22:21:30.292Z,3.33
2022-08-10T22:27:57.903Z,3.17
2022-08-10T22:31:22.890Z,3.38
2022-08-10T22:34:02.443Z,2.95
2022-08-10T22:37:17.555Z,2.95
2022-08-10T22:40:18.824Z,2.90
2022-08-10T22:43:10.686Z,3.00
2022-08-10T22:46:03.227Z,3.10
2022-08-10T22:48:51.038Z,3.30
2022-08-10T22:51:24.569Z,3.10
2022-08-10T22:54:30.545Z,2.85
2022-08-10T22:57:23.354Z,3.22
2022-08-10T22:59:52.507Z,3.00
2022-08-10T23:02:30.747Z,3.10
2022-08-10T23:05:08.314Z,2.80
2022-08-10T23:07:46.578Z,2.80
2022-08-10T23:10:19.377Z,3.40
2022-08-10T23:13:08.419Z,2.72
2022-08-10T23:15:56.656Z,2.75
2022-08-10T23:18:51.823Z,2.85
2022-08-10T23:21:22.826Z,3.10
2022-08-10T23:23:54.481Z,3.03
2022-08-10T23:26:27.903Z,3.17
2022-08-10T23:29:09.732Z,3.13
2022-08-10T23:32:00.641Z,2.80
2022-08-10T23:34:44.482Z,2.80
2022-08-10T23:37:14.403Z,2.70
2022-08-10T23:39:47.587Z,3.90
2022-08-10T23:42:23.420Z,2.83
2022-08-10T23:44:57.056Z,3.47
2022-08-10T23:47:27.207Z,3.17
2022-08-10T23:50:00.347Z,3.47
2022-08-10T23:52:32.223Z,3.40
2022-08-10T23:55:10.065Z,3.45
2022-08-10T23:57:43.736Z,3.08
